createdAt,value
2019-04-20T00:02:14.376Z,5.23
2019-04-20T00:07:06.897Z,5.63
2019-04-20T00:12:10.752Z,4.83
2019-04-20T00:16:58.787Z,4.73
2019-04-20T00:22:02.020Z,5.37
2019-04-20T00:31:59.187Z,5.53
2019-04-20T00:36:43.611Z,5.43
2019-04-20T00:41:44.113Z,5.60
2019-04-20T00:46:42.187Z,5.63
2019-04-20T00:51:48.781Z,5.43
2019-04-20T00:56:24.804Z,5.30
2019-04-20T01:01:37.935Z,5.70
2019-04-20T01:07:06.279Z,5.63
2019-04-20T01:11:49.464Z,5.43
2019-04-20T01:16:51.276Z,5.43
2019-04-20T01:21:44.531Z,5.63
2019-04-20T01:26:41.907Z,5.60
2019-04-20T01:31:38.336Z,5.47
2019-04-20T01:36:45.757Z,6.03
2019-04-20T01:41:22.448Z,5.90
2019-04-20T01:46:21.518Z,5.87
2019-04-20T01:51:19.617Z,5.77
2019-04-20T01:56:21.785Z,5.70
2019-04-20T02:01:36.212Z,6.47
2019-04-20T02:06:29.175Z,6.00
2019-04-20T02:11:29.627Z,6.03
2019-04-20T02:16:28.881Z,5.80
2019-04-20T02:21:55.962Z,5.23
2019-04-20T02:27:04.630Z,5.50
2019-04-20T02:32:31.803Z,6.50
2019-04-20T02:42:51.501Z,5.77
2019-04-20T02:47:47.379Z,5.80
2019-04-20T02:53:21.950Z,5.97
2019-04-20T02:58:41.718Z,5.60
2019-04-20T03:03:13.464Z,5.90
2019-04-20T03:08:13.596Z,5.10
2019-04-20T03:13:14.481Z,5.33
2019-04-20T03:18:19.737Z,5.17
2019-04-20T03:28:22.219Z,5.97
2019-04-20T03:38:13.224Z,5.47
2019-04-20T03:42:46.525Z,5.20
2019-04-20T03:47:54.647Z,5.60
2019-04-20T03:53:18.082Z,6.47
2019-04-20T03:58:29.055Z,6.20
2019-04-20T04:04:10.964Z,5.53
2019-04-20T04:08:58.920Z,5.80
2019-04-20T04:13:39.780Z,5.77
2019-04-20T04:18:46.109Z,6.33
2019-04-20T04:23:56.234Z,6.00
2019-04-20T04:28:50.215Z,6.03
2019-04-20T04:34:17.438Z,6.77
2019-04-20T04:39:22.356Z,6.47
2019-04-20T04:44:10.958Z,6.20
2019-04-20T04:49:19.535Z,6.07
2019-04-20T04:54:16.556Z,6.23
2019-04-20T04:59:02.580Z,6.23
2019-04-20T05:04:22.791Z,6.60
2019-04-20T05:09:00.813Z,6.77
2019-04-20T05:14:00.578Z,6.60
2019-04-20T05:19:31.205Z,6.63
2019-04-20T05:24:50.724Z,6.63
2019-04-20T05:29:31.868Z,7.17
2019-04-20T05:34:44.849Z,7.70
2019-04-20T05:39:38.194Z,7.33
2019-04-20T05:44:43.971Z,6.93
2019-04-20T05:49:32.178Z,7.33
2019-04-20T05:54:36.349Z,7.47
2019-04-20T05:59:26.995Z,6.87
2019-04-20T06:04:38.806Z,7.33
2019-04-20T06:09:42.947Z,6.70
2019-04-20T06:15:09.457Z,8.40
2019-04-20T06:20:12.712Z,8.30
2019-04-20T06:25:31.146Z,7.57
2019-04-20T06:30:30.874Z,7.73
2019-04-20T06:36:07.517Z,7.20
2019-04-20T06:41:17.337Z,7.00
2019-04-20T06:46:04.459Z,7.80
2019-04-20T06:51:04.656Z,6.93
2019-04-20T06:56:29.059Z,7.30
2019-04-20T07:01:36.939Z,7.53
2019-04-20T07:07:22.415Z,7.10
2019-04-20T07:12:43.725Z,6.70
2019-04-20T07:18:17.254Z,7.10
2019-04-20T07:23:57.028Z,7.40
2019-04-20T07:29:10.361Z,7.77
2019-04-20T07:34:05.700Z,7.00
2019-04-20T07:39:33.123Z,7.20
2019-04-20T07:44:56.685Z,6.83
2019-04-20T07:50:02.394Z,7.10
2019-04-20T07:55:26.334Z,6.73
2019-04-20T08:00:26.098Z,6.87
2019-04-20T08:05:30.998Z,5.83
2019-04-20T08:11:10.284Z,5.77
2019-04-20T08:16:08.433Z,5.63
2019-04-20T08:21:28.783Z,5.80
2019-04-20T08:26:10.847Z,6.03
2019-04-20T08:31:49.039Z,5.33
2019-04-20T08:36:57.145Z,5.23
2019-04-20T08:42:10.209Z,4.83
2019-04-20T08:47:18.247Z,5.03
2019-04-20T08:52:48.343Z,5.57
2019-04-20T08:57:22.606Z,5.43
2019-04-20T09:02:28.814Z,4.87
2019-04-20T09:07:53.835Z,5.57
2019-04-20T09:12:57.243Z,6.33
2019-04-20T09:17:54.105Z,5.13
2019-04-20T09:23:16.654Z,5.20
2019-04-20T09:28:31.865Z,5.40
2019-04-20T09:34:01.510Z,5.03
2019-04-20T09:39:24.648Z,5.20
2019-04-20T09:44:20.035Z,5.03
2019-04-20T09:49:58.019Z,5.23
2019-04-20T09:55:14.688Z,5.03
2019-04-20T10:00:27.155Z,5.03
2019-04-20T10:05:23.348Z,5.20
2019-04-20T10:10:42.068Z,5.20
2019-04-20T10:15:53.450Z,5.83
2019-04-20T10:21:09.553Z,5.57
2019-04-20T10:26:32.384Z,5.50
2019-04-20T10:32:12.550Z,5.33
2019-04-20T10:37:31.518Z,5.40
2019-04-20T10:42:28.108Z,6.00
2019-04-20T10:47:21.560Z,6.60
2019-04-20T10:52:36.421Z,6.53
2019-04-20T10:57:41.746Z,5.73
2019-04-20T11:02:35.300Z,6.20
2019-04-20T11:07:36.939Z,6.20
2019-04-20T11:13:03.271Z,5.77
2019-04-20T11:18:19.529Z,6.07
2019-04-20T11:23:34.027Z,5.20
2019-04-20T11:28:50.899Z,5.50
2019-04-20T11:34:25.172Z,4.60
2019-04-20T11:39:45.368Z,5.00
2019-04-20T11:44:39.437Z,5.00
2019-04-20T11:50:09.478Z,5.40
2019-04-20T11:55:44.571Z,5.30
2019-04-20T12:00:53.990Z,5.33
2019-04-20T12:05:44.486Z,5.20
2019-04-20T12:10:54.732Z,5.27
2019-04-20T12:16:07.612Z,5.30
2019-04-20T12:21:42.785Z,5.30
2019-04-20T12:27:00.836Z,5.30
2019-04-20T12:32:21.881Z,5.93
2019-04-20T12:37:56.921Z,5.23
2019-04-20T12:42:51.073Z,5.30
2019-04-20T12:48:31.479Z,5.27
2019-04-20T12:53:30.504Z,4.97
2019-04-20T12:58:47.633Z,5.20
2019-04-20T13:04:07.540Z,5.20
2019-04-20T13:09:52.706Z,5.70
2019-04-20T13:15:42.451Z,4.80
2019-04-20T13:20:39.883Z,5.10
2019-04-20T13:26:17.391Z,4.67
2019-04-20T13:31:31.660Z,4.60
2019-04-20T13:36:38.075Z,5.33
2019-04-20T13:41:41.787Z,5.17
2019-04-20T13:47:05.125Z,5.30
2019-04-20T13:52:08.775Z,4.83
2019-04-20T13:57:29.521Z,5.27
2019-04-20T14:02:46.696Z,4.07
2019-04-20T14:08:01.489Z,4.73
2019-04-20T14:13:03.135Z,5.10
2019-04-20T14:17:51.095Z,5.33
2019-04-20T14:23:07.482Z,5.40
2019-04-20T14:28:09.509Z,6.40
2019-04-20T14:34:00.013Z,5.93
2019-04-20T14:39:08.053Z,5.47
2019-04-20T14:44:05.852Z,6.03
2019-04-20T14:49:00.684Z,6.30
2019-04-20T14:53:55.645Z,7.20
2019-04-20T14:58:57.649Z,6.63
2019-04-20T15:03:59.941Z,7.50
2019-04-20T15:08:48.347Z,7.00
2019-04-20T15:13:42.577Z,6.57
2019-04-20T15:18:40.157Z,7.00
2019-04-20T15:23:33.613Z,7.10
2019-04-20T15:28:28.324Z,6.03
2019-04-20T15:33:23.074Z,6.00
2019-04-20T15:38:17.500Z,6.83
2019-04-20T15:43:17.442Z,5.90
2019-04-20T15:48:08.132Z,5.80
2019-04-20T15:53:02.662Z,6.20
2019-04-20T15:57:57.663Z,6.63
2019-04-20T16:03:05.385Z,6.23
2019-04-20T16:08:10.663Z,6.33
2019-04-20T16:13:15.976Z,5.93
2019-04-20T16:18:00.903Z,6.00
2019-04-20T16:22:54.585Z,5.60
2019-04-20T16:27:49.792Z,5.90
2019-04-20T16:32:43.242Z,6.07
2019-04-20T16:37:38.254Z,6.23
2019-04-20T16:42:32.167Z,6.07
2019-04-20T16:47:26.076Z,6.20
2019-04-20T16:52:19.468Z,6.50
2019-04-20T16:57:14.198Z,6.00
2019-04-20T17:02:08.713Z,7.03
2019-04-20T17:07:20.724Z,6.20
2019-04-20T17:12:15.439Z,6.77
2019-04-20T17:17:09.457Z,6.60
2019-04-20T17:22:03.560Z,6.53
2019-04-20T17:27:10.893Z,6.73
2019-04-20T17:32:09.724Z,6.93
2019-04-20T17:37:04.566Z,6.50
2019-04-20T17:42:15.736Z,6.73
2019-04-20T17:47:03.691Z,6.40
2019-04-20T17:52:12.705Z,6.93
2019-04-20T17:56:44.977Z,6.57
2019-04-20T18:02:11.937Z,6.90
2019-04-20T18:07:10.974Z,6.47
2019-04-20T18:11:52.781Z,6.87
2019-04-20T18:17:11.377Z,7.00
2019-04-20T18:21:59.639Z,6.80
2019-04-20T18:27:17.373Z,6.80
2019-04-20T18:31:57.739Z,8.17
2019-04-20T18:36:52.761Z,8.27
2019-04-20T18:41:51.432Z,8.10
2019-04-20T18:47:06.437Z,7.70
2019-04-20T18:51:37.700Z,6.90
2019-04-20T18:56:39.610Z,7.83
2019-04-20T19:01:32.077Z,7.77
2019-04-20T19:06:21.757Z,8.53
2019-04-20T19:11:19.792Z,7.93
2019-04-20T19:16:37.751Z,8.90
2019-04-20T19:21:27.045Z,8.33
2019-04-20T19:26:21.985Z,8.80
2019-04-20T19:31:35.531Z,8.50
2019-04-20T19:36:19.824Z,8.03
2019-04-20T19:41:22.531Z,8.70
2019-04-20T19:46:46.267Z,9.13
2019-04-20T19:51:17.618Z,9.13
2019-04-20T19:56:03.498Z,9.60
2019-04-20T20:00:52.134Z,8.97
2019-04-20T20:05:48.416Z,9.37
2019-04-20T20:10:44.156Z,9.60
2019-04-20T20:15:37.990Z,9.67
2019-04-20T20:20:52.853Z,10.47
2019-04-20T20:25:32.402Z,9.87
2019-04-20T20:30:27.928Z,10.23
2019-04-20T20:35:23.528Z,9.53
2019-04-20T20:40:18.826Z,10.43
2019-04-20T20:45:21.106Z,10.90
2019-04-20T20:50:32.002Z,9.90
2019-04-20T20:55:06.701Z,10.20
2019-04-20T21:00:00.576Z,9.87
2019-04-20T21:04:51.142Z,10.63
2019-04-20T21:09:46.056Z,9.33
2019-04-20T21:14:42.147Z,9.60
2019-04-20T21:19:53.418Z,10.43
2019-04-20T21:24:33.797Z,10.30
2019-04-20T21:29:35.339Z,10.07
2019-04-20T21:34:24.144Z,10.00
2019-04-20T21:39:30.098Z,10.70
2019-04-20T21:44:24.157Z,10.33
2019-04-20T21:49:25.028Z,9.83
2019-04-20T21:54:05.518Z,10.37
2019-04-20T21:59:03.785Z,10.47
2019-04-20T22:03:54.818Z,9.47
2019-04-20T22:08:54.486Z,10.07
2019-04-20T22:13:46.393Z,9.87
2019-04-20T22:18:48.461Z,10.87
2019-04-20T22:23:51.084Z,10.43
2019-04-20T22:28:30.183Z,10.33
2019-04-20T22:33:35.069Z,10.67
2019-04-20T22:38:33.048Z,11.07
2019-04-20T22:43:31.594Z,11.30
2019-04-20T22:48:22.909Z,11.87
2019-04-20T22:53:33.966Z,10.57
2019-04-20T22:58:28.798Z,10.50
2019-04-20T23:03:07.215Z,10.30
2019-04-20T23:08:00.760Z,9.70
2019-04-20T23:12:56.658Z,10.20
2019-04-20T23:17:52.042Z,10.57
2019-04-20T23:22:47.918Z,9.87
2019-04-20T23:27:40.756Z,10.27
2019-04-20T23:32:35.883Z,9.50
2019-04-20T23:37:33.151Z,9.93
2019-04-20T23:42:33.580Z,10.93
2019-04-20T23:47:34.184Z,9.63
2019-04-20T23:52:49.012Z,10.13
2019-04-20T23:57:26.026Z,9.87
